M I D A S
Marine Information and Data Acquisition System
Tripno 1521 of the Zeeleeuw from 2008-07-17 06:24:38 to 2008-07-17 15:20:31
Back to CruiseResearch ActivitiesStationsMapUnderway DataData graphs

EquipmentUnitsComment
TimeDGPSUTC
LatitudeDGPSDM.mWGS84
LongitudeDGPSDM.mWGS84
HeadingGyrodeg 
SOGDGPSknotsSpeed over ground
COGDGPSdegCourse over ground
DepthEcho soundermeters200 kHz
Missing or incorrect values are displayed as -999
Navigation data collected by the RV Zeeleeuw from 2008-07-17 06:27:00 to 2008-07-17 15:22:41
Time Latitude Longitude Heading SOG COG Depth
2008-07-17 06:28:04 51°13.637 2°55.996 107.8 3.2 292 -999
2008-07-17 06:29:04 51°13.645 2°55.954 110.2 0.6 293 -999
2008-07-17 06:30:05 51°13.661 2°55.9 114.7 3.2 296 -999
2008-07-17 06:31:04 51°13.686 2°55.815 111.7 3.6 294 -999
2008-07-17 06:32:04 51°13.701 2°55.741 97.9 1.6 286 9.7
2008-07-17 06:33:04 51°13.718 2°55.752 38.7 2.3 21 9.9
2008-07-17 06:34:05 51°13.722 2°55.75 352.6 0.8 186 -999
2008-07-17 06:35:04 51°13.735 2°55.734 330.5 3.2 325 5.1
2008-07-17 06:36:04 51°13.823 2°55.643 331.8 8.1 331 9.9
2008-07-17 06:37:04 51°13.952 2°55.537 334.3 9 333 10.2
2008-07-17 06:38:03 51°14.083 2°55.435 334.9 9 333 -999
2008-07-17 06:39:01 51°14.209 2°55.322 327.3 8.9 323 10.2
2008-07-17 06:40:01 51°14.313 2°55.156 311.9 8.9 310 9.6
2008-07-17 06:41:01 51°14.392 2°54.939 290.9 10.9 285 9.5
2008-07-17 06:42:01 51°14.394 2°54.632 261 12.3 257 9.6
2008-07-17 06:43:01 51°14.31 2°54.327 242.4 12.8 242 8.1
2008-07-17 06:44:01 51°14.215 2°54.021 245.4 13 244 7.8
2008-07-17 06:45:01 51°14.116 2°53.712 244 13.1 244 8.1
2008-07-17 06:46:01 51°14.015 2°53.403 244.3 13.2 243 8.3
2008-07-17 06:47:01 51°13.915 2°53.092 244.9 13.2 242 8.7
2008-07-17 06:48:01 51°13.813 2°52.782 244.7 13.2 244 9.1
2008-07-17 06:49:01 51°13.725 2°52.464 250.2 13 248 9.3
2008-07-17 06:50:01 51°13.648 2°52.153 250.3 10.6 247 9.5
2008-07-17 06:51:01 51°13.58 2°51.978 237.4 6.2 236 9.8
2008-07-17 06:52:01 51°13.537 2°51.855 254.3 4.7 246 9.9
2008-07-17 06:53:01 51°13.51 2°51.742 261.3 4.6 251 10
2008-07-17 06:54:01 51°13.487 2°51.614 265 5.4 256 10
2008-07-17 06:55:01 51°13.462 2°51.476 259.3 4.9 249 10.1
2008-07-17 06:56:01 51°13.43 2°51.38 241.6 3.6 235 10.4
2008-07-17 06:57:01 51°13.402 2°51.328 227.1 2.1 224 10.3
2008-07-17 06:58:01 51°13.378 2°51.292 219.9 2 223 10.3
2008-07-17 06:59:01 51°13.355 2°51.259 223.9 1.8 221 10.3
2008-07-17 07:00:01 51°13.333 2°51.227 228 1.7 225 10.3
2008-07-17 07:01:01 51°13.303 2°51.174 233.1 5 233 10.2
2008-07-17 07:02:01 51°13.221 2°50.955 240.6 12.2 240 10.1
2008-07-17 07:03:01 51°13.114 2°50.664 241 13 242 10.2
2008-07-17 07:04:01 51°13.012 2°50.358 242.4 13.2 240 10.3
2008-07-17 07:05:01 51°12.897 2°50.061 236.3 13.1 236 10.4
2008-07-17 07:06:01 51°12.78 2°49.767 240 13.1 238 10.6
2008-07-17 07:07:01 51°12.664 2°49.474 238 13 238 10.6
2008-07-17 07:08:01 51°12.547 2°49.179 238.7 13.2 238 10.6
2008-07-17 07:09:01 51°12.432 2°48.881 238.2 13.2 240 10.5
2008-07-17 07:10:01 51°12.346 2°48.564 250.4 13.1 250 10.7
2008-07-17 07:11:01 51°12.27 2°48.238 250.7 13.1 247 11
2008-07-17 07:12:01 51°12.193 2°47.913 250.5 13.1 248 11.3
2008-07-17 07:13:01 51°12.123 2°47.582 254 13.1 253 11.7
2008-07-17 07:14:01 51°12.056 2°47.252 252.6 13.1 252 11.8
2008-07-17 07:15:01 51°11.98 2°46.926 249.1 13.1 247 11.9
2008-07-17 07:16:01 51°11.9 2°46.603 249.9 13.1 248 12.1
2008-07-17 07:17:01 51°11.828 2°46.277 251.7 13.1 251 12.1
2008-07-17 07:18:01 51°11.758 2°45.949 251.4 13.1 252 12.1
2008-07-17 07:19:01 51°11.69 2°45.619 254.1 13.1 254 12.1
2008-07-17 07:20:01 51°11.621 2°45.29 249.2 13.1 248 12.1
2008-07-17 07:21:01 51°11.54 2°44.966 247.8 13.2 249 12.1
2008-07-17 07:22:01 51°11.459 2°44.641 248.4 13.2 249 12
2008-07-17 07:23:01 51°11.378 2°44.317 248.9 13.2 248 11.9
2008-07-17 07:24:01 51°11.296 2°43.995 245.7 13.1 247 12
2008-07-17 07:25:01 51°11.208 2°43.677 246.4 13.1 247 11.8
2008-07-17 07:26:01 51°11.123 2°43.358 246.7 13.1 247 11.8
2008-07-17 07:27:01 51°11.072 2°43.063 258.1 9.5 257 11.9
2008-07-17 07:28:01 51°11.057 2°42.868 274.9 6.2 270 12.1
2008-07-17 07:29:01 51°11.06 2°42.716 280.4 5.3 275 12.2
2008-07-17 07:30:01 51°11.069 2°42.57 281.5 5.7 275 12
2008-07-17 07:31:01 51°11.075 2°42.418 278.4 5.8 273 12
2008-07-17 07:32:01 51°11.078 2°42.271 275.8 4.6 269 11.9
2008-07-17 07:33:01 51°11.07 2°42.177 260.9 2.5 250 11.9
2008-07-17 07:34:01 51°11.057 2°42.143 250.6 1.3 227 12
2008-07-17 07:35:01 51°11.043 2°42.12 232.5 1.2 224 12.1
2008-07-17 07:36:01 51°11.028 2°42.102 220.7 1.1 217 12.1
2008-07-17 07:37:01 51°11.013 2°42.085 217.4 1.2 221 12
2008-07-17 07:38:01 51°10.976 2°42.053 199.7 4.4 209 12.1
2008-07-17 07:39:01 51°10.896 2°41.948 219.8 8.3 223 12.1
2008-07-17 07:40:01 51°10.788 2°41.769 224.9 9.8 228 12
2008-07-17 07:41:01 51°10.676 2°41.574 226.3 10 227 11.8
2008-07-17 07:42:01 51°10.565 2°41.375 226.5 10.1 227 11.6
2008-07-17 07:43:01 51°10.452 2°41.178 225.8 10.1 228 11.3
2008-07-17 07:44:01 51°10.345 2°40.972 230.5 10 232 11.1
2008-07-17 07:45:01 51°10.248 2°40.756 236.8 10 238 10.8
2008-07-17 07:46:01 51°10.168 2°40.523 240.8 10 241 10.6
2008-07-17 07:47:01 51°10.102 2°40.323 246.6 6.9 246 10.6
2008-07-17 07:48:01 51°10.074 2°40.165 275.7 6.2 281 10.8
2008-07-17 07:49:01 51°10.146 2°40.124 33.7 5.2 42 11.3
2008-07-17 07:50:01 51°10.159 2°40.303 84.6 9.2 88 11
2008-07-17 07:51:01 51°10.16 2°40.564 87.7 10.1 90 10.5
2008-07-17 07:52:01 51°10.162 2°40.834 87.3 10.2 90 10.1
2008-07-17 07:53:01 51°10.154 2°41.105 90.8 10.2 94 9.5
2008-07-17 07:54:01 51°10.143 2°41.378 91.5 10.4 96 9
2008-07-17 07:55:01 51°10.13 2°41.652 91 10.4 94 8.6
2008-07-17 07:56:01 51°10.123 2°41.925 90 10.3 93 8.2
2008-07-17 07:57:01 51°10.109 2°42.174 94.7 9.1 96 8.1
2008-07-17 07:58:01 51°10.089 2°42.411 94.2 8.9 97 8.3
2008-07-17 07:59:01 51°10.092 2°42.627 79.7 6.3 81 8.6
2008-07-17 08:00:01 51°10.11 2°42.72 75 0.9 87 8.7
2008-07-17 08:01:01 51°10.105 2°42.723 100.2 0.4 174 8.7
2008-07-17 08:02:01 51°10.097 2°42.724 114.8 0.5 178 8.7
2008-07-17 08:03:01 51°10.087 2°42.725 124 0.6 168 8.8
2008-07-17 08:04:01 51°10.077 2°42.728 133.1 0.7 173 8.8
2008-07-17 08:05:01 51°10.065 2°42.73 142.1 0.7 178 8.8
2008-07-17 08:06:01 51°10.053 2°42.73 148.7 0.7 184 8.8
2008-07-17 08:07:01 51°10.033 2°42.743 130.4 2.6 136 8.8
2008-07-17 08:08:01 51°10.035 2°42.816 53.5 3.7 49 8.8
2008-07-17 08:09:01 51°10.137 2°42.851 3.6 8.8 -999 8.7
2008-07-17 08:10:01 51°10.275 2°42.752 314.7 10.7 308 8.4
2008-07-17 08:11:01 51°10.338 2°42.466 285.7 12.1 282 8.5
2008-07-17 08:12:01 51°10.359 2°42.143 274.5 12.4 273 9
2008-07-17 08:13:01 51°10.368 2°41.814 274.8 12.4 273 9.8
2008-07-17 08:14:01 51°10.371 2°41.483 272.3 12.6 270 10.6
2008-07-17 08:15:01 51°10.368 2°41.149 271.8 12.6 270 11.2
2008-07-17 08:16:01 51°10.365 2°40.815 270.5 12.6 269 11.6
2008-07-17 08:17:01 51°10.364 2°40.48 273.7 12.7 271 12.1
2008-07-17 08:18:01 51°10.361 2°40.145 270.6 12.7 267 12.6
2008-07-17 08:19:01 51°10.338 2°39.812 264.1 12.6 262 13.2
2008-07-17 08:20:01 51°10.317 2°39.478 267.9 12.7 266 14.2
2008-07-17 08:21:01 51°10.294 2°39.143 264.9 12.7 263 15.1
2008-07-17 08:22:01 51°10.274 2°38.808 267.2 12.7 265 15.6
2008-07-17 08:23:01 51°10.26 2°38.472 267 12.7 264 15.5
2008-07-17 08:24:01 51°10.241 2°38.136 267 12.8 265 16.3
2008-07-17 08:25:01 51°10.226 2°37.798 268.6 12.8 267 17.2
2008-07-17 08:26:01 51°10.216 2°37.459 270.9 12.8 268 17.8
2008-07-17 08:27:01 51°10.23 2°37.129 287.7 12.3 286 17.5
2008-07-17 08:28:01 51°10.311 2°36.833 300.5 12.1 301 16.3
2008-07-17 08:29:01 51°10.465 2°36.671 350.5 11 353 9.1
2008-07-17 08:30:01 51°10.65 2°36.691 6.6 11.3 4 9.8
2008-07-17 08:31:01 51°10.838 2°36.714 8.4 11.4 7 11
2008-07-17 08:32:01 51°11.026 2°36.748 7.9 11.4 5 12.2
2008-07-17 08:33:01 51°11.215 2°36.776 10.4 11.3 6 12.8
2008-07-17 08:34:01 51°11.402 2°36.815 11.8 11.4 9 12.5
2008-07-17 08:35:01 51°11.591 2°36.848 8.4 11.4 6 11.9
2008-07-17 08:36:01 51°11.779 2°36.881 11.4 11.4 8 11.3
2008-07-17 08:37:01 51°11.967 2°36.925 10.3 11.4 8 10.6
2008-07-17 08:38:01 51°12.155 2°36.966 10.8 11.4 8 9.9
2008-07-17 08:39:01 51°12.343 2°37.006 10.5 11.4 8 9.8
2008-07-17 08:40:01 51°12.532 2°37.044 9.7 11.5 8 10.4
2008-07-17 08:41:01 51°12.721 2°37.082 9.8 11.4 7 10.1
2008-07-17 08:42:01 51°12.91 2°37.119 10.1 11.4 7 9.3
2008-07-17 08:43:01 51°13.099 2°37.157 8.3 11.5 5 8.8
2008-07-17 08:44:01 51°13.29 2°37.157 0.9 11.5 -999 8.9
2008-07-17 08:45:01 51°13.48 2°37.142 358.2 11.5 354 8.6
2008-07-17 08:46:01 51°13.674 2°37.11 356.1 11.9 352 17
2008-07-17 08:47:01 51°13.869 2°37.071 357 11.7 354 20.3
2008-07-17 08:48:01 51°14.062 2°37.035 357 11.6 353 17.1
2008-07-17 08:49:01 51°14.253 2°37 358.1 11.5 356 12.7
2008-07-17 08:50:01 51°14.443 2°36.983 358.5 11.4 357 10.8
2008-07-17 08:51:01 51°14.635 2°36.971 359.9 11.5 358 10.7
2008-07-17 08:52:01 51°14.827 2°36.961 359.6 11.7 358 11.1
2008-07-17 08:53:01 51°15.022 2°36.945 359.7 11.7 356 11.9
2008-07-17 08:54:01 51°15.216 2°36.919 358 11.7 356 14.4
2008-07-17 08:55:01 51°15.409 2°36.9 0.8 11.6 359 10.9
2008-07-17 08:56:01 51°15.602 2°36.896 359.5 11.7 358 12.4
2008-07-17 08:57:01 51°15.797 2°36.888 1.8 11.7 359 15.1
2008-07-17 08:58:01 51°15.991 2°36.867 357.1 11.7 354 21.1
2008-07-17 08:59:01 51°16.164 2°36.836 355.4 7.6 351 26
2008-07-17 09:00:01 51°16.259 2°36.822 6.2 4.5 1 27.3
2008-07-17 09:01:01 51°16.32 2°36.829 11 3.3 4 27.7
2008-07-17 09:02:01 51°16.38 2°36.837 11.9 4.3 7 26.9
2008-07-17 09:03:01 51°16.46 2°36.844 0.6 5 353 27
2008-07-17 09:04:01 51°16.526 2°36.816 351.2 3.6 345 26.7
2008-07-17 09:05:01 51°16.568 2°36.795 347.8 1.5 325 26.7
2008-07-17 09:06:01 51°16.578 2°36.77 330.6 1 292 26.6
2008-07-17 09:07:01 51°16.582 2°36.749 330.4 0.6 278 26.7
2008-07-17 09:08:01 51°16.581 2°36.733 332.5 0.6 258 26.8
2008-07-17 09:09:01 51°16.578 2°36.72 334.6 0.5 237 26.8
2008-07-17 09:10:01 51°16.573 2°36.711 337.8 0.5 222 26.8
2008-07-17 09:11:01 51°16.566 2°36.705 339.9 0.5 210 26.9
2008-07-17 09:12:01 51°16.561 2°36.699 343.2 0.5 307 27
2008-07-17 09:13:01 51°16.602 2°36.614 307.6 7 301 26.8
2008-07-17 09:14:01 51°16.689 2°36.433 319 9.4 314 26.5
2008-07-17 09:15:01 51°16.817 2°36.251 324 11.4 319 27.1
2008-07-17 09:16:01 51°16.963 2°36.039 321 12 317 25.6
2008-07-17 09:17:01 51°17.116 2°35.837 326.1 11.9 323 19.7
2008-07-17 09:18:01 51°17.271 2°35.642 323.7 11.9 320 13.8
2008-07-17 09:19:01 51°17.423 2°35.443 323.7 11.7 320 10.3
2008-07-17 09:20:01 51°17.576 2°35.246 324.5 12 323 15.4
2008-07-17 09:21:01 51°17.735 2°35.06 326.1 12 322 17.4
2008-07-17 09:22:01 51°17.866 2°34.817 310.2 12.2 307 19
2008-07-17 09:23:01 51°17.988 2°34.558 309.8 12.3 307 28
2008-07-17 09:24:01 51°18.108 2°34.297 307.4 12.2 304 28.4
2008-07-17 09:25:01 51°18.222 2°34.026 307.6 12.3 304 25.3
2008-07-17 09:26:01 51°18.334 2°33.759 306.2 12.1 301 21.4
2008-07-17 09:27:01 51°18.441 2°33.486 305.3 12 303 18.1
2008-07-17 09:28:01 51°18.556 2°33.222 308.8 12.2 306 23.4
2008-07-17 09:29:01 51°18.675 2°32.96 308 12.2 305 27
2008-07-17 09:30:01 51°18.787 2°32.693 308.3 12.2 305 29.8
2008-07-17 09:31:01 51°18.897 2°32.42 308.4 12.2 304 30.6
2008-07-17 09:32:01 51°19.019 2°32.162 312.2 12.2 307 31.3
2008-07-17 09:33:01 51°19.138 2°31.903 310.3 11.9 306 31.1
2008-07-17 09:34:01 51°19.257 2°31.643 310.5 12.1 305 30.9
2008-07-17 09:35:01 51°19.377 2°31.384 310.8 12.1 306 30.9
2008-07-17 09:36:01 51°19.501 2°31.131 314.2 12.1 310 30.5
2008-07-17 09:37:01 51°19.626 2°30.884 310.5 12 309 23.9
2008-07-17 09:38:01 51°19.756 2°30.64 312.4 12 310 18.1
2008-07-17 09:39:01 51°19.881 2°30.405 310.9 9.7 308 15.8
2008-07-17 09:40:01 51°19.942 2°30.259 297.6 4.8 293 13.2
2008-07-17 09:41:01 51°19.955 2°30.177 284.8 2.4 285 13.2
2008-07-17 09:42:01 51°19.967 2°30.129 290.7 1.7 289 15.5
2008-07-17 09:43:01 51°19.98 2°30.087 293.4 2.1 293 14.5
2008-07-17 09:44:01 51°19.99 2°30.048 285.9 1 295 14
2008-07-17 09:45:01 51°19.993 2°30.039 285.6 0.2 8 14.7
2008-07-17 09:46:01 51°19.997 2°30.042 294.2 0.4 41 14.4
2008-07-17 09:47:01 51°20 2°30.052 304.2 0.6 59 13.3
2008-07-17 09:48:01 51°20.006 2°30.067 316.5 0.7 67 12.8
2008-07-17 09:49:01 51°20.011 2°30.086 326.5 0.8 69 15.1
2008-07-17 09:50:01 51°20.016 2°30.107 331.1 0.8 68 14.6
2008-07-17 09:51:01 51°20.021 2°30.129 333.3 0.9 74 14.2
2008-07-17 09:52:01 51°20.033 2°30.148 342.1 2.1 10 15.1
2008-07-17 09:53:01 51°20.104 2°30.194 32.5 7.3 44 14
2008-07-17 09:54:01 51°20.187 2°30.39 52 9.9 55 14.1
2008-07-17 09:55:01 51°20.288 2°30.607 51.2 10.7 53 15.3
2008-07-17 09:56:01 51°20.402 2°30.85 50.9 11.9 52 15.1
2008-07-17 09:57:01 51°20.527 2°31.109 53 12.3 54 14.8
2008-07-17 09:58:01 51°20.656 2°31.361 50.1 12.2 54 16.2
2008-07-17 09:59:01 51°20.763 2°31.635 58.3 12.2 61 15.5
2008-07-17 10:00:01 51°20.854 2°31.925 62.1 12.2 64 21.3
2008-07-17 10:01:01 51°20.944 2°32.216 61.8 12 64 25.2
2008-07-17 10:02:01 51°21.035 2°32.502 60.3 12 61 28.6
2008-07-17 10:03:01 51°21.128 2°32.785 62 12.1 63 29.3
2008-07-17 10:04:01 51°21.218 2°33.072 63.8 12.1 65 30.5
2008-07-17 10:05:01 51°21.31 2°33.36 59.9 12.2 61 31.2
2008-07-17 10:06:01 51°21.408 2°33.647 60.4 12.4 62 32.5
2008-07-17 10:07:01 51°21.503 2°33.939 61.6 12.4 63 33.7
2008-07-17 10:08:01 51°21.599 2°34.233 60.4 12.5 62 32.7
2008-07-17 10:09:01 51°21.696 2°34.527 62 12.6 63 31.4
2008-07-17 10:10:01 51°21.791 2°34.822 60.1 12.5 60 31.5
2008-07-17 10:11:01 51°21.886 2°35.117 61.9 12.5 63 30.3
2008-07-17 10:12:01 51°21.978 2°35.415 61.7 12.4 63 31.1
2008-07-17 10:13:01 51°22.072 2°35.711 61 12.5 62 31.2
2008-07-17 10:14:01 51°22.169 2°36.006 61.8 12.5 63 31.6
2008-07-17 10:15:01 51°22.263 2°36.305 68.1 12.6 71 32.1
2008-07-17 10:16:01 51°22.253 2°36.635 99.6 12.7 99 31.5
2008-07-17 10:17:01 51°22.244 2°36.972 87.8 12.8 88 31.8
2008-07-17 10:18:01 51°22.242 2°37.308 90.2 12.7 91 31.9
2008-07-17 10:19:01 51°22.237 2°37.645 91.9 12.6 92 31.6
2008-07-17 10:20:01 51°22.293 2°37.942 48.4 12.1 50 30.9
2008-07-17 10:21:01 51°22.424 2°38.196 52.2 12.6 56 31
2008-07-17 10:22:01 51°22.524 2°38.487 58.7 12.6 61 31.2
2008-07-17 10:23:01 51°22.626 2°38.781 58.9 12.6 59 31.4
2008-07-17 10:24:01 51°22.723 2°39.079 61.1 12.6 64 31.7
2008-07-17 10:25:01 51°22.821 2°39.376 61.3 12.6 63 31.4
2008-07-17 10:26:01 51°22.918 2°39.673 60.9 12.6 62 31.8
2008-07-17 10:27:01 51°23.019 2°39.969 60.9 12.5 62 31.5
2008-07-17 10:28:01 51°23.116 2°40.267 60.9 12.6 62 31.3
2008-07-17 10:29:01 51°23.215 2°40.565 60.7 12.6 65 31.1
2008-07-17 10:30:01 51°23.316 2°40.86 60.4 12.7 63 30.4
2008-07-17 10:31:01 51°23.414 2°41.158 60.9 12.7 62 29.3
2008-07-17 10:32:01 51°23.514 2°41.456 60.9 12.8 63 31.1
2008-07-17 10:33:01 51°23.614 2°41.754 60.6 12.8 63 29.5
2008-07-17 10:34:01 51°23.714 2°42.053 61.1 12.8 61 26.4
2008-07-17 10:35:01 51°23.814 2°42.354 60.2 12.7 61 27
2008-07-17 10:36:01 51°23.918 2°42.654 59.1 12.9 60 25.6
2008-07-17 10:37:01 51°24.025 2°42.95 58.9 12.9 60 27.8
2008-07-17 10:38:01 51°24.128 2°43.251 59.4 13 61 27.2
2008-07-17 10:39:01 51°24.234 2°43.548 58.7 12.9 61 26.9
2008-07-17 10:40:01 51°24.336 2°43.85 59.5 13 62 24.5
2008-07-17 10:41:01 51°24.44 2°44.148 59.4 12.8 62 24.7
2008-07-17 10:42:01 51°24.541 2°44.452 61.3 12.9 61 29.1
2008-07-17 10:43:01 51°24.636 2°44.76 63.8 12.9 65 28.6
2008-07-17 10:44:01 51°24.734 2°45.064 60.4 12.8 63 28.2
2008-07-17 10:45:01 51°24.834 2°45.365 61.4 12.9 63 28.1
2008-07-17 10:46:01 51°24.933 2°45.669 61.2 13 62 27.2
2008-07-17 10:47:01 51°25.031 2°45.975 63.8 12.9 65 26.7
2008-07-17 10:48:01 51°25.126 2°46.284 62.3 12.9 63 26.8
2008-07-17 10:49:01 51°25.224 2°46.588 62.8 12.8 62 26.8
2008-07-17 10:50:01 51°25.323 2°46.893 61.1 12.8 61 26.8
2008-07-17 10:51:02 51°25.425 2°47.201 60.4 12.9 62 27.2
2008-07-17 10:52:02 51°25.524 2°47.51 63 12.9 63 26.9
2008-07-17 10:53:02 51°25.617 2°47.817 64.2 12.8 65 25.5
2008-07-17 10:54:02 51°25.719 2°48.102 53.7 10.2 54 25.2
2008-07-17 10:55:02 51°25.803 2°48.253 38 5.9 42 25.4
2008-07-17 10:56:02 51°25.868 2°48.323 18.3 4.1 30 25.5
2008-07-17 10:57:02 51°25.921 2°48.375 19.1 3.6 32 25.4
2008-07-17 10:58:02 51°25.968 2°48.432 28.2 3.4 41 25.5
2008-07-17 10:59:02 51°25.996 2°48.478 14.1 1.7 58 25.6
2008-07-17 11:00:02 51°26.009 2°48.514 5.9 1.5 59 25.3
2008-07-17 11:01:02 51°26.02 2°48.548 353.3 1.5 61 24.7
2008-07-17 11:02:02 51°26.031 2°48.582 342.1 1.4 63 25.7
2008-07-17 11:03:02 51°26.04 2°48.615 331.8 1.4 67 25.8
2008-07-17 11:04:02 51°26.051 2°48.651 330.1 1.5 66 25.6
2008-07-17 11:05:02 51°26.061 2°48.688 332 1.6 66 25.9
2008-07-17 11:06:02 51°26.092 2°48.719 1.7 4.4 21 25
2008-07-17 11:07:02 51°26.151 2°48.877 82.3 8.9 79 25.3
2008-07-17 11:08:02 51°26.187 2°49.171 80.2 12.6 78 25.5
2008-07-17 11:09:02 51°26.232 2°49.511 81.2 13.1 79 25.1
2008-07-17 11:10:02 51°26.271 2°49.858 82.3 13.2 81 25.1
2008-07-17 11:11:02 51°26.319 2°50.201 78.7 13.1 78 25.3
2008-07-17 11:12:02 51°26.37 2°50.545 78.2 13.4 76 25.3
2008-07-17 11:13:02 51°26.417 2°50.892 78.7 13.4 76 25
2008-07-17 11:14:02 51°26.466 2°51.239 78.7 13.4 78 28.8
2008-07-17 11:15:02 51°26.517 2°51.586 78.3 13.4 77 27.3
2008-07-17 11:16:02 51°26.566 2°51.935 78.9 13.4 78 28.6
2008-07-17 11:17:02 51°26.616 2°52.282 77.6 13.4 78 28.3
2008-07-17 11:18:02 51°26.667 2°52.63 78.6 13.4 78 29.6
2008-07-17 11:19:02 51°26.71 2°52.978 79.7 13.3 77 31.2
2008-07-17 11:20:02 51°26.758 2°53.324 79.1 13.3 77 31.4
2008-07-17 11:21:02 51°26.805 2°53.671 79.4 13.4 78 30
2008-07-17 11:22:02 51°26.862 2°54.015 78.3 13.3 75 27.4
2008-07-17 11:23:02 51°26.912 2°54.357 80.5 13.3 76 25.8
2008-07-17 11:24:02 51°26.963 2°54.703 79.7 13.2 76 29.7
2008-07-17 11:25:02 51°27.011 2°55.046 79.7 13.2 76 28.7
2008-07-17 11:26:02 51°27.059 2°55.389 79.8 13 77 30.2
2008-07-17 11:27:02 51°27.111 2°55.728 79.9 13.1 77 31.8
2008-07-17 11:28:02 51°27.161 2°56.07 79.4 13.2 75 30.1
2008-07-17 11:29:02 51°27.213 2°56.411 80.1 13.2 78 28
2008-07-17 11:30:02 51°27.264 2°56.755 79.8 13.4 78 18.8
2008-07-17 11:31:02 51°27.314 2°57.103 79.1 13.2 77 27.6
2008-07-17 11:32:02 51°27.363 2°57.449 79.6 13.3 77 27
2008-07-17 11:33:02 51°27.415 2°57.792 77.6 13.4 74 24.3
2008-07-17 11:34:02 51°27.474 2°58.135 75.4 13.3 74 22.4
2008-07-17 11:35:02 51°27.537 2°58.476 76.4 13.4 76 19.4
2008-07-17 11:36:02 51°27.595 2°58.819 77.3 13.4 75 20.1
2008-07-17 11:37:02 51°27.658 2°59.159 73.6 13.3 71 19.9
2008-07-17 11:38:02 51°27.725 2°59.498 75.5 13.4 73 19.7
2008-07-17 11:39:02 51°27.792 2°59.838 75.9 13.4 74 21.2
2008-07-17 11:40:02 51°27.847 3°0.185 81.7 13.4 79 21.8
2008-07-17 11:41:02 51°27.877 3°0.534 85.9 13.1 81 23.8
2008-07-17 11:42:02 51°27.904 3°0.883 87.8 13.3 84 24.5
2008-07-17 11:43:02 51°27.927 3°1.236 88.3 13.4 84 25.6
2008-07-17 11:44:02 51°27.96 3°1.592 82.7 13.5 80 25.3
2008-07-17 11:45:02 51°27.999 3°1.947 81.7 13.5 78 25.6
2008-07-17 11:46:02 51°28.041 3°2.298 79.6 13.4 78 25.4
2008-07-17 11:47:02 51°28.093 3°2.646 78.2 13.4 75 25
2008-07-17 11:48:02 51°28.151 3°2.98 76.3 11.2 73 24.8
2008-07-17 11:49:02 51°28.199 3°3.204 72.8 7.4 70 24.4
2008-07-17 11:50:02 51°28.235 3°3.354 72.1 5.3 68 24.6
2008-07-17 11:51:02 51°28.265 3°3.465 63.3 3.7 62 24.1
2008-07-17 11:52:02 51°28.282 3°3.519 35.5 1.7 72 24.1
2008-07-17 11:53:02 51°28.291 3°3.563 28.6 1.8 72 23.9
2008-07-17 11:54:02 51°28.301 3°3.61 25.9 1.9 68 24.1
2008-07-17 11:55:02 51°28.312 3°3.658 22.5 1.9 69 24.1
2008-07-17 11:56:02 51°28.325 3°3.706 17.7 2 66 23.8
2008-07-17 11:57:02 51°28.338 3°3.757 10.8 1.9 66 23.7
2008-07-17 11:58:02 51°28.351 3°3.806 5.6 2.3 57 23.7
2008-07-17 11:59:02 51°28.393 3°3.884 56.2 5.4 59 23.9
2008-07-17 12:00:02 51°28.382 3°4.028 131.2 6.9 117 23.2
2008-07-17 12:01:02 51°28.282 3°4.237 142.4 11.5 136 21.5
2008-07-17 12:02:02 51°28.131 3°4.451 146.5 12.5 137 19.8
2008-07-17 12:03:02 51°27.991 3°4.692 136.5 12.5 131 17.4
2008-07-17 12:04:02 51°27.857 3°4.945 136.1 12.6 129 16.1
2008-07-17 12:05:02 51°27.719 3°5.192 138 12.4 133 16.1
2008-07-17 12:06:02 51°27.581 3°5.439 136.8 12.4 132 16.8
2008-07-17 12:07:02 51°27.444 3°5.688 136.6 12.2 131 16.2
2008-07-17 12:08:02 51°27.312 3°5.947 133.2 12.6 129 15.6
2008-07-17 12:09:02 51°27.186 3°6.215 132.3 12.6 127 15.2
2008-07-17 12:10:02 51°27.058 3°6.478 132.6 12.3 128 14.8
2008-07-17 12:11:02 51°26.932 3°6.743 134.3 12.5 128 14.3
2008-07-17 12:12:02 51°26.811 3°7.015 129.3 12.7 122 13.8
2008-07-17 12:13:02 51°26.706 3°7.303 118.4 12.8 111 13.3
2008-07-17 12:14:02 51°26.627 3°7.613 115.3 12.1 109 12.7
2008-07-17 12:15:02 51°26.565 3°7.866 127.6 7.9 121 12.3
2008-07-17 12:16:02 51°26.511 3°8.003 133.3 5.3 120 12.2
2008-07-17 12:17:02 51°26.476 3°8.117 129.1 4.2 112 12.3
2008-07-17 12:18:02 51°26.456 3°8.213 128.4 3.4 107 12.7
2008-07-17 12:19:02 51°26.444 3°8.286 134 2.2 95 12.7
2008-07-17 12:20:02 51°26.442 3°8.342 137.2 2 92 12.7
2008-07-17 12:21:02 51°26.443 3°8.391 147.9 1.8 86 12.9
2008-07-17 12:22:02 51°26.447 3°8.435 152.4 1.6 79 12.8
2008-07-17 12:23:02 51°26.451 3°8.476 161 1.5 78 12.8
2008-07-17 12:24:02 51°26.458 3°8.514 169.2 1.5 77 12.9
2008-07-17 12:25:02 51°26.438 3°8.57 146.5 4.7 128 12.8
2008-07-17 12:26:02 51°26.332 3°8.747 132.2 11.6 124 12.3
2008-07-17 12:27:02 51°26.225 3°9.026 124.2 12.5 118 11.5
2008-07-17 12:28:02 51°26.12 3°9.314 124.5 12.6 118 11.1
2008-07-17 12:29:02 51°26.011 3°9.597 126.5 12.6 123 10.4
2008-07-17 12:30:02 51°25.899 3°9.879 125.2 12.5 122 10
2008-07-17 12:31:02 51°25.79 3°10.162 125 12.6 121 9.9
2008-07-17 12:32:02 51°25.682 3°10.442 125.6 12.5 121 9.5
2008-07-17 12:33:02 51°25.57 3°10.719 125.1 12.6 123 9.9
2008-07-17 12:34:02 51°25.453 3°10.994 128.3 12.3 126 10.7
2008-07-17 12:35:02 51°25.334 3°11.269 125.1 12.6 124 11.5
2008-07-17 12:36:02 51°25.222 3°11.547 124.3 12.4 122 12
2008-07-17 12:37:02 51°25.109 3°11.828 126.1 12.6 123 12.5
2008-07-17 12:38:02 51°24.994 3°12.111 127.4 12.8 123 13.5
2008-07-17 12:39:02 51°24.875 3°12.393 127.5 12.9 123 14.4
2008-07-17 12:40:02 51°24.753 3°12.677 126.5 12.9 123 16.3
2008-07-17 12:41:02 51°24.63 3°12.954 132 12.8 130 18
2008-07-17 12:42:02 51°24.474 3°13.183 149.4 12.6 148 21
2008-07-17 12:43:02 51°24.284 3°13.307 167.5 12.2 160 19.3
2008-07-17 12:44:02 51°24.091 3°13.386 180.1 11.5 173 15
2008-07-17 12:45:02 51°23.9 3°13.394 189.5 11.4 180 13.5
2008-07-17 12:46:02 51°23.709 3°13.416 184.4 11.5 175 13.4
2008-07-17 12:47:02 51°23.517 3°13.44 183.5 11.5 175 13.1
2008-07-17 12:48:02 51°23.329 3°13.439 193.5 11.1 185 12.8
2008-07-17 12:49:02 51°23.151 3°13.386 199.3 11 194 12.7
2008-07-17 12:50:02 51°22.983 3°13.31 203.4 9 195 13.1
2008-07-17 12:51:02 51°22.856 3°13.264 203.8 7.5 190 13.2
2008-07-17 12:52:02 51°22.749 3°13.233 207.1 5.1 191 13.7
2008-07-17 12:53:02 51°22.699 3°13.218 222.3 1.9 187 13.7
2008-07-17 12:54:02 51°22.679 3°13.219 233.1 1 178 13.9
2008-07-17 12:55:02 51°22.665 3°13.228 232.2 0.9 162 13.8
2008-07-17 12:56:02 51°22.652 3°13.24 230.3 1 142 13.9
2008-07-17 12:57:02 51°22.644 3°13.266 228.9 1.2 103 13.9
2008-07-17 12:58:02 51°22.641 3°13.308 225.2 1.8 89 13.7
2008-07-17 12:59:02 51°22.642 3°13.361 216 2.2 85 13.6
2008-07-17 13:00:02 51°22.647 3°13.421 199.2 2.3 80 13.5
2008-07-17 13:01:02 51°22.654 3°13.482 178 2.2 86 13.3
2008-07-17 13:02:02 51°22.635 3°13.525 210.1 1.9 166 13.1
2008-07-17 13:03:02 51°22.614 3°13.461 258.9 5.3 260 13.3
2008-07-17 13:04:02 51°22.59 3°13.278 259 7.7 262 13.7
2008-07-17 13:05:02 51°22.575 3°13.067 261.3 8 264 14.2
2008-07-17 13:06:02 51°22.563 3°12.852 263 8.2 265 14.9
2008-07-17 13:07:02 51°22.551 3°12.633 261.7 8.3 265 15.2
2008-07-17 13:08:02 51°22.539 3°12.414 262.5 8.3 266 15.9
2008-07-17 13:09:02 51°22.526 3°12.198 260.5 8.1 264 16.2
2008-07-17 13:10:02 51°22.513 3°11.981 261.9 8.2 265 16.6
2008-07-17 13:11:02 51°22.495 3°11.765 257.7 8.2 261 17
2008-07-17 13:12:02 51°22.48 3°11.585 259 5.3 264 17.3
2008-07-17 13:13:02 51°22.473 3°11.464 260.1 4.2 268 17.4
2008-07-17 13:14:02 51°22.465 3°11.361 254.6 3.4 260 17.7
2008-07-17 13:15:02 51°22.459 3°11.284 260.6 2.5 273 17.6
2008-07-17 13:16:02 51°22.461 3°11.245 253.7 0.8 279 17.6
2008-07-17 13:17:02 51°22.459 3°11.228 247.1 0.6 244 17.5
2008-07-17 13:18:02 51°22.459 3°11.226 249.1 0.4 56 17.5
2008-07-17 13:19:02 51°22.465 3°11.244 248.1 1.1 69 17.5
2008-07-17 13:20:02 51°22.471 3°11.282 233.8 1.8 75 17.5
2008-07-17 13:21:02 51°22.482 3°11.335 205.9 2.3 69 17.5
2008-07-17 13:22:02 51°22.495 3°11.388 176.5 1.9 77 17.4
2008-07-17 13:23:02 51°22.47 3°11.404 226.8 2.6 224 17.3
2008-07-17 13:24:02 51°22.453 3°11.272 253.2 6.6 254 17.5
2008-07-17 13:25:02 51°22.411 3°11.07 249.5 9.1 251 17.4
2008-07-17 13:26:02 51°22.358 3°10.815 249.6 10.8 252 18.4
2008-07-17 13:27:02 51°22.287 3°10.548 244 10.9 245 20.3
2008-07-17 13:28:02 51°22.206 3°10.292 242.6 10.7 242 16.2
2008-07-17 13:29:02 51°22.126 3°10.038 242.3 10.7 245 15.7
2008-07-17 13:30:02 51°22.052 3°9.777 243.7 10.7 243 15
2008-07-17 13:31:02 51°21.97 3°9.523 242.8 10.8 243 14.4
2008-07-17 13:32:02 51°21.891 3°9.264 244.9 10.9 246 13.7
2008-07-17 13:33:02 51°21.813 3°9.003 244.8 10.9 244 13
2008-07-17 13:34:02 51°21.743 3°8.738 248 10.9 248 12.7
2008-07-17 13:35:02 51°21.678 3°8.466 248.9 11.1 251 12.2
2008-07-17 13:36:02 51°21.613 3°8.192 249.4 11.1 250 12
2008-07-17 13:37:02 51°21.542 3°7.92 245.4 11.1 247 11.8
2008-07-17 13:38:02 51°21.473 3°7.651 246.7 10.9 248 11.7
2008-07-17 13:39:02 51°21.404 3°7.384 246.9 10.9 249 11.2
2008-07-17 13:40:02 51°21.332 3°7.121 245.8 10.8 247 11.2
2008-07-17 13:41:02 51°21.269 3°6.853 253.1 10.8 254 11.1
2008-07-17 13:42:02 51°21.214 3°6.577 250.9 10.9 251 11
2008-07-17 13:43:02 51°21.162 3°6.3 253.1 10.9 255 11
2008-07-17 13:44:02 51°21.116 3°6.02 254.3 11 255 10.8
2008-07-17 13:45:02 51°21.078 3°5.734 256.5 11.1 259 10.8
2008-07-17 13:46:02 51°21.039 3°5.446 256.1 10.9 256 10.8
2008-07-17 13:47:02 51°20.99 3°5.17 252.4 10.7 254 10.7
2008-07-17 13:48:02 51°20.944 3°4.892 254.8 10.9 256 10.6
2008-07-17 13:49:02 51°20.897 3°4.612 251.9 10.9 254 10.7
2008-07-17 13:50:02 51°20.844 3°4.335 254 11 255 10.7
2008-07-17 13:51:02 51°20.801 3°4.049 255.1 11.2 257 10.8
2008-07-17 13:52:02 51°20.756 3°3.762 253.8 11 254 10.8
2008-07-17 13:53:02 51°20.704 3°3.483 251.2 10.9 253 10.7
2008-07-17 13:54:02 51°20.655 3°3.205 254.2 11 257 10.4
2008-07-17 13:55:02 51°20.611 3°2.922 254.7 11 256 10.5
2008-07-17 13:56:02 51°20.565 3°2.638 253.3 11 254 10.5
2008-07-17 13:57:02 51°20.51 3°2.36 251 10.9 253 10.6
2008-07-17 13:58:02 51°20.457 3°2.083 252.2 10.9 253 10.7
2008-07-17 13:59:02 51°20.408 3°1.8 252.8 11.2 254 10.7
2008-07-17 14:00:02 51°20.36 3°1.511 254.5 11.3 258 10.7
2008-07-17 14:01:02 51°20.315 3°1.221 252.4 11.3 254 10.7
2008-07-17 14:02:02 51°20.267 3°0.932 253.9 11.2 255 10.9
2008-07-17 14:03:02 51°20.218 3°0.645 254.4 11.2 255 11.1
2008-07-17 14:04:02 51°20.17 3°0.355 252.7 11.3 255 10.9
2008-07-17 14:05:02 51°20.118 3°0.066 253.4 11.3 255 10.9
2008-07-17 14:06:02 51°20.074 2°59.773 253.3 11.3 253 11
2008-07-17 14:07:02 51°20.03 2°59.482 254.5 11.3 256 11
2008-07-17 14:08:02 51°19.986 2°59.192 251.6 11.2 255 11.3
2008-07-17 14:09:02 51°19.936 2°58.904 251.5 11.2 256 11.3
2008-07-17 14:10:02 51°19.89 2°58.617 254.3 11.2 257 11.6
2008-07-17 14:11:02 51°19.852 2°58.323 255.6 11.4 258 11.8
2008-07-17 14:12:02 51°19.805 2°58.033 253.9 11.2 258 11.9
2008-07-17 14:13:02 51°19.759 2°57.743 252.3 11.3 254 11.9
2008-07-17 14:14:02 51°19.713 2°57.454 253.4 11.2 256 12.2
2008-07-17 14:15:02 51°19.665 2°57.167 252.2 11.1 257 12.2
2008-07-17 14:16:02 51°19.619 2°56.879 253.4 11.3 257 12.3
2008-07-17 14:17:02 51°19.574 2°56.591 253.7 11.2 257 12.5
2008-07-17 14:18:02 51°19.535 2°56.298 254.7 11.3 258 12.6
2008-07-17 14:19:02 51°19.491 2°56.01 252.1 11.1 255 12.6
2008-07-17 14:20:02 51°19.446 2°55.722 253.4 11.2 256 12.7
2008-07-17 14:21:02 51°19.398 2°55.433 250.4 11.3 255 13
2008-07-17 14:22:02 51°19.347 2°55.146 251.9 11.2 255 12.8
2008-07-17 14:23:02 51°19.299 2°54.858 251.7 11.3 254 12.9
2008-07-17 14:24:02 51°19.246 2°54.573 250.3 11.2 255 13
2008-07-17 14:25:02 51°19.195 2°54.288 250.9 11.1 254 13.1
2008-07-17 14:26:02 51°19.147 2°54.002 251.1 11.1 253 13.1
2008-07-17 14:27:02 51°19.095 2°53.718 250.3 11.2 252 13.2
2008-07-17 14:28:02 51°19.041 2°53.435 249.6 11.2 253 13.2
2008-07-17 14:29:02 51°18.983 2°53.153 246.9 11.2 249 13.2
2008-07-17 14:30:02 51°18.921 2°52.874 248.5 11.1 250 13.2
2008-07-17 14:31:02 51°18.86 2°52.596 248.3 11.2 251 13.4
2008-07-17 14:32:02 51°18.797 2°52.317 246.9 11.2 251 13.7
2008-07-17 14:33:02 51°18.732 2°52.04 246.7 11 247 14.1
2008-07-17 14:34:02 51°18.666 2°51.764 247.8 11.2 250 14.4
2008-07-17 14:35:02 51°18.613 2°51.518 248.3 7.9 252 14.7
2008-07-17 14:36:02 51°18.574 2°51.335 247.6 7 252 14.8
2008-07-17 14:37:02 51°18.546 2°51.195 246.9 3.5 251 14.9
2008-07-17 14:38:02 51°18.533 2°51.142 240.9 1.4 250 15.2
2008-07-17 14:39:02 51°18.529 2°51.122 239.6 0.6 238 15.1
2008-07-17 14:40:02 51°18.521 2°51.101 239.9 1.3 244 15.1
2008-07-17 14:41:02 51°18.51 2°51.066 242.7 1.8 246 14.8
2008-07-17 14:42:02 51°18.502 2°51.025 246 0.6 276 14.8
2008-07-17 14:43:02 51°18.506 2°51.025 241.3 0.7 46 14.9
2008-07-17 14:44:02 51°18.517 2°51.051 230.7 1.6 56 14.9
2008-07-17 14:45:02 51°18.535 2°51.088 208.2 1.8 46 14.9
2008-07-17 14:46:02 51°18.558 2°51.125 179.2 1.9 37 15.2
2008-07-17 14:47:04 51°18.535 2°51.195 145.1 7.3 138 14.8
2008-07-17 14:48:04 51°18.397 2°51.354 149.5 11.6 144 14
2008-07-17 14:49:04 51°18.237 2°51.525 149.2 11.8 145 12.9
2008-07-17 14:50:04 51°18.075 2°51.694 150 11.6 151 11.8
2008-07-17 14:51:04 51°17.913 2°51.866 151.2 11.5 151 11.4
2008-07-17 14:52:04 51°17.754 2°52.035 150.2 11.4 151 11.1
2008-07-17 14:53:04 51°17.595 2°52.209 148.7 11.8 148 11.5
2008-07-17 14:54:04 51°17.434 2°52.382 149.4 11.6 143 11.5
2008-07-17 14:55:04 51°17.272 2°52.553 148.5 11.9 145 10.8
2008-07-17 14:56:04 51°17.11 2°52.725 148.7 11.8 145 10.7
2008-07-17 14:57:04 51°16.948 2°52.898 149 11.8 146 9.9
2008-07-17 14:58:04 51°16.79 2°53.074 141.1 11.9 137 11.5
2008-07-17 14:59:04 51°16.65 2°53.301 137.1 12 131 12.1
2008-07-17 15:00:04 51°16.526 2°53.551 126.2 12 125 12.4
2008-07-17 15:01:04 51°16.43 2°53.829 121.5 11 118 12.1
2008-07-17 15:02:04 51°16.367 2°54.003 126.9 5.7 119 12.1
2008-07-17 15:03:04 51°16.331 2°54.104 132.7 3.6 120 12
2008-07-17 15:04:04 51°16.308 2°54.171 137.1 2.6 118 12.1
2008-07-17 15:05:04 51°16.288 2°54.223 145.3 2.2 120 11.8
2008-07-17 15:06:04 51°16.272 2°54.265 151.7 1.6 117 12.1
2008-07-17 15:07:04 51°16.263 2°54.296 158.9 1.1 107 12.2
2008-07-17 15:08:04 51°16.258 2°54.322 164.8 1 103 11.9
2008-07-17 15:09:04 51°16.257 2°54.348 169.1 0.9 95 12.3
2008-07-17 15:10:04 51°16.24 2°54.382 161.7 4 149 12.2
2008-07-17 15:11:04 51°16.12 2°54.442 171.4 10.4 172 11.6
2008-07-17 15:12:04 51°15.934 2°54.472 174.1 11.6 174 11.9
2008-07-17 15:13:04 51°15.743 2°54.504 174.6 11.5 177 10.7
2008-07-17 15:14:04 51°15.553 2°54.524 176.7 11.4 178 10.1
2008-07-17 15:15:04 51°15.363 2°54.545 176.7 11.4 175 9.7
2008-07-17 15:16:04 51°15.173 2°54.571 174.1 11.6 174 9.2
2008-07-17 15:17:04 51°14.984 2°54.621 172.8 11.6 171 9.3
2008-07-17 15:18:04 51°14.794 2°54.677 168.1 11.6 166 10.2
2008-07-17 15:19:04 51°14.615 2°54.795 153.1 11.6 155 10
2008-07-17 15:20:04 51°14.446 2°54.95 146.9 11.6 145 11.2
2008-07-17 15:21:04 51°14.312 2°55.17 129.1 11.7 131 11.2
2008-07-17 15:22:04 51°14.185 2°55.359 140.3 9.3 141 11.7